Hovedside
METAR-TAF:

METAR-TAF

Lufthavner :

Aswan, Egypt

breddegrad: 23-58N, lengdegrad: 032-47E, høyde over havet: 200 m

Gjeldene værobservasjon

Denne rapporten ble laget for 1 time og 29 minutter siden, klokken 02:00 UTC
Flau vind
Temperatur 16°C
Luftfuktighet 39%
Trykk 1012 hPa
Sikt 10 km eller mer
ingen skyer under 1500 m og ingen bygeskyer

METAR: HESN 290200Z 00000KT CAVOK 16/02 Q1012 NOSIG

Tid: 05:29 (03:29 UTC)

Varsel

Denne rapporten ble laget for 4 timer og 29 minutter siden, klokken 23:00 UTC
Varsel gyldig fra 29. klokken 00 UTC til 30. klokken 06 UTC
Vind 10 kt fra Nord
Sikt 10 km eller mer
ingen skyer under 1500 m og ingen bygeskyer

TAF: HESN 282300Z 2900/3006 35010KT CAVOK

Værobservasjoner og værvarsel for over 4000 flyplasser (METAR- og TAF-rapporter).

Tilgjengelige stasjoner er representert av de røde og gule prikkene på kartet.

Hold musepekeren over prikken for å se navnet på stasjonen.

Klikk så for å se værobservasjoner og -varsler.

For å forandre kartet kan du klikke på den grønne knappen med svart kryss for å zoome inn, på den grønne knappen med strek for å zoome ut, eller på de grønne pilene for å se tilstøtende kart.


METAR-TAF: